Woodgate — D5BX7 — position and weather

sailwx.info

Track history (hours):
 
Tides and Currents Weather Stations Pressure Air Temp Water Temp Dewpoint Dewpoint Depression Visibility Wind Speed Wind Dir Waves Ship Positions

Woodgate

Last reported at 2017-May-17 22:02 UTC. Time now 2017-May-30 10:53 UTC.
Position N 35°45' W 007°19'.
Warning: this ship's position is 12 days out of date.

Length 169 m; draft 9.9 m.

Type: Cargo ship. MMSI: 636015627.

Date/timePositionNaut miles runAvg speedWind from/ knotsBaromVisibWave heightAir tempDewpointWater temp
2017-May-17 22:02N 35°45' W 007°19'112.7
2017-May-17 21:59N 35°45' W 007°19'8413.0
2017-May-17 15:29N 35°57' W 005°36'613.0
2017-May-17 15:00N 35°59' W 005°29'1312.8
2017-May-17 14:00N 36°02' W 005°13'26312.9
2017-May-16 17:34N 36°41' E 000°10'113.1
2017-May-16 17:30N 36°41' E 000°12'713.2
2017-May-16 17:00N 36°43' E 000°20'713.3
2017-May-16 16:28N 36°44' E 000°28'613.3
2017-May-16 16:00N 36°45' E 000°36'713.3
2017-May-16 15:29N 36°46' E 000°44'713.2
2017-May-16 14:59N 36°47' E 000°52'1313.3
2017-May-16 14:00N 36°49' E 001°09'713.0
2017-May-16 13:30N 36°50' E 001°17'612.9
2017-May-16 13:00N 36°51' E 001°25'713.2
2017-May-16 12:28N 36°51' E 001°33'613.6
2017-May-16 12:00N 36°52' E 001°41'713.8
2017-May-16 11:30N 36°53' E 001°50'713.8
2017-May-16 11:00N 36°54' E 001°59'713.7
2017-May-16 10:30N 36°55' E 002°07'713.7
2017-May-16 09:58N 36°56' E 002°16'813.5
2017-May-16 09:25N 36°57' E 002°25'713.4
2017-May-16 08:55N 36°58' E 002°33'513.3
2017-May-16 08:30N 36°59' E 002°40'713.2
2017-May-16 08:00N 36°60' E 002°48'713.1
2017-May-16 07:30N 37°01' E 002°57'613.0
2017-May-16 07:01N 37°02' E 003°05'1013.1
2017-May-16 06:16N 37°03' E 003°17'413.0
2017-May-16 05:56N 37°04' E 003°22'612.9
2017-May-16 05:30N 37°05' E 003°29'613.1
2017-May-16 05:00N 37°06' E 003°37'613.0
2017-May-16 04:30N 37°07' E 003°45'713.1
2017-May-16 04:00N 37°07' E 003°53'613.0
2017-May-16 03:30N 37°08' E 004°01'713.1
2017-May-16 03:00N 37°09' E 004°09'713.1
2017-May-16 02:30N 37°10' E 004°17'612.8
2017-May-16 02:00N 37°11' E 004°25'612.6
2017-May-16 01:30N 37°12' E 004°33'913.0
2017-May-16 00:47N 37°13' E 004°45'2613.1
2017-May-15 22:51N 37°17' E 005°17'513.3
2017-May-15 22:28N 37°17' E 005°23'4513.2
2017-May-15 19:03N 37°24' E 006°19'513.1
2017-May-15 18:38N 37°25' E 006°26'25112.6
2017-May-14 22:43N 37°13' E 011°42'413.3
2017-May-14 22:27N 37°12' E 011°46'3012.4
2017-May-14 20:02N 36°57' E 012°19'112.6
2017-May-14 19:59N 36°57' E 012°20'1912.8
2017-May-14 18:31N 36°48' E 012°40'213.0
2017-May-14 18:24N 36°48' E 012°42'512.8
2017-May-14 18:00N 36°46' E 012°48'612.9
2017-May-14 17:31N 36°43' E 012°55'713.0
2017-May-14 17:00N 36°40' E 013°02'713.1
2017-May-14 16:30N 36°37' E 013°10'713.3
2017-May-14 16:00N 36°34' E 013°17'713.3
2017-May-14 15:30N 36°31' E 013°24'713.4
2017-May-14 15:00N 36°28' E 013°32'713.6
2017-May-14 14:30N 36°25' E 013°39'1313.5
2017-May-14 13:30N 36°19' E 013°54'713.4
2017-May-14 13:00N 36°16' E 014°02'713.3
2017-May-14 12:30N 36°13' E 014°09'713.3
2017-May-14 12:00N 36°10' E 014°16'713.4
2017-May-14 11:30N 36°06' E 014°24'713.4
2017-May-14 11:00N 36°02' E 014°30'713.3
2017-May-14 10:30N 35°59' E 014°37'612.2
2017-May-14 10:00N 35°55' E 014°43'3 6.1
2017-May-14 09:30N 35°53' E 014°46'0 0.8
2017-May-14 08:58N 35°53' E 014°46'0 0.0
2017-May-14 08:28N 35°53' E 014°46'0 0.0
2017-May-14 07:58N 35°53' E 014°46'0 0.0
2017-May-14 07:28N 35°53' E 014°46'0 0.0
2017-May-14 06:58N 35°53' E 014°46'0 0.0
2017-May-14 06:28N 35°53' E 014°46'0 0.0
2017-May-14 05:58N 35°53' E 014°46'0 0.0
2017-May-14 05:28N 35°53' E 014°46'0 0.0
2017-May-14 04:58N 35°53' E 014°46'0 0.0
2017-May-14 04:28N 35°53' E 014°46'0 0.0
2017-May-14 03:58N 35°53' E 014°46'0 0.1
2017-May-14 03:28N 35°53' E 014°46'0 0.1
2017-May-14 02:58N 35°53' E 014°46'0 0.2
2017-May-14 02:31N 35°53' E 014°46'1 2.7
2017-May-14 02:00N 35°53' E 014°48'4 8.2
2017-May-14 01:31N 35°53' E 014°53'5 9.9
2017-May-14 00:59N 35°52' E 014°59'612.3
2017-May-14 00:31N 35°52' E 015°06'42712.4
2017-May-12 14:04N 37°11' E 023°49'712.1
2017-May-12 13:30N 37°17' E 023°53'612.6
2017-May-12 13:00N 37°22' E 023°57'812.7
2017-May-12 12:21N 37°29' E 024°04'1712.4
2017-May-12 10:57N 37°44' E 024°14'812.9
2017-May-12 10:20N 37°49' E 024°22'613.2
2017-May-12 09:54N 37°53' E 024°28'  
Track history (hours):
 
Tides and Currents Weather Stations Pressure Air Temp Water Temp Dewpoint Dewpoint Depression Visibility Wind Speed Wind Dir Waves Ship Positions

Woodgate

Last reported at 2017-May-17 22:02 UTC. Time now 2017-May-30 10:53 UTC.
Position N 35°45' W 007°19'.
Warning: this ship's position is 12 days out of date.

Length 169 m; draft 9.9 m.

Type: Cargo ship. MMSI: 636015627.

Date/timePositionNaut miles runAvg speedWind from/ knotsBaromVisibWave heightAir tempDewpointWater temp
2017-May-17 22:02N 35°45' W 007°19'112.7
2017-May-17 21:59N 35°45' W 007°19'8413.0
2017-May-17 15:29N 35°57' W 005°36'613.0
2017-May-17 15:00N 35°59' W 005°29'1312.8
2017-May-17 14:00N 36°02' W 005°13'26312.9
2017-May-16 17:34N 36°41' E 000°10'113.1
2017-May-16 17:30N 36°41' E 000°12'713.2
2017-May-16 17:00N 36°43' E 000°20'713.3
2017-May-16 16:28N 36°44' E 000°28'613.3
2017-May-16 16:00N 36°45' E 000°36'713.3
2017-May-16 15:29N 36°46' E 000°44'713.2
2017-May-16 14:59N 36°47' E 000°52'1313.3
2017-May-16 14:00N 36°49' E 001°09'713.0
2017-May-16 13:30N 36°50' E 001°17'612.9
2017-May-16 13:00N 36°51' E 001°25'713.2
2017-May-16 12:28N 36°51' E 001°33'613.6
2017-May-16 12:00N 36°52' E 001°41'713.8
2017-May-16 11:30N 36°53' E 001°50'713.8
2017-May-16 11:00N 36°54' E 001°59'713.7
2017-May-16 10:30N 36°55' E 002°07'713.7
2017-May-16 09:58N 36°56' E 002°16'813.5
2017-May-16 09:25N 36°57' E 002°25'713.4
2017-May-16 08:55N 36°58' E 002°33'513.3
2017-May-16 08:30N 36°59' E 002°40'713.2
2017-May-16 08:00N 36°60' E 002°48'713.1
2017-May-16 07:30N 37°01' E 002°57'613.0
2017-May-16 07:01N 37°02' E 003°05'1013.1
2017-May-16 06:16N 37°03' E 003°17'413.0
2017-May-16 05:56N 37°04' E 003°22'612.9
2017-May-16 05:30N 37°05' E 003°29'613.1
2017-May-16 05:00N 37°06' E 003°37'613.0
2017-May-16 04:30N 37°07' E 003°45'713.1
2017-May-16 04:00N 37°07' E 003°53'613.0
2017-May-16 03:30N 37°08' E 004°01'713.1
2017-May-16 03:00N 37°09' E 004°09'713.1
2017-May-16 02:30N 37°10' E 004°17'612.8
2017-May-16 02:00N 37°11' E 004°25'612.6
2017-May-16 01:30N 37°12' E 004°33'913.0
2017-May-16 00:47N 37°13' E 004°45'2613.1
2017-May-15 22:51N 37°17' E 005°17'513.3
2017-May-15 22:28N 37°17' E 005°23'4513.2
2017-May-15 19:03N 37°24' E 006°19'513.1
2017-May-15 18:38N 37°25' E 006°26'25112.6
2017-May-14 22:43N 37°13' E 011°42'413.3
2017-May-14 22:27N 37°12' E 011°46'3012.4
2017-May-14 20:02N 36°57' E 012°19'112.6
2017-May-14 19:59N 36°57' E 012°20'1912.8
2017-May-14 18:31N 36°48' E 012°40'213.0
2017-May-14 18:24N 36°48' E 012°42'512.8
2017-May-14 18:00N 36°46' E 012°48'612.9
2017-May-14 17:31N 36°43' E 012°55'713.0
2017-May-14 17:00N 36°40' E 013°02'713.1
2017-May-14 16:30N 36°37' E 013°10'713.3
2017-May-14 16:00N 36°34' E 013°17'713.3
2017-May-14 15:30N 36°31' E 013°24'713.4
2017-May-14 15:00N 36°28' E 013°32'713.6
2017-May-14 14:30N 36°25' E 013°39'1313.5
2017-May-14 13:30N 36°19' E 013°54'713.4
2017-May-14 13:00N 36°16' E 014°02'713.3
2017-May-14 12:30N 36°13' E 014°09'713.3
2017-May-14 12:00N 36°10' E 014°16'713.4
2017-May-14 11:30N 36°06' E 014°24'713.4
2017-May-14 11:00N 36°02' E 014°30'713.3
2017-May-14 10:30N 35°59' E 014°37'612.2
2017-May-14 10:00N 35°55' E 014°43'3 6.1
2017-May-14 09:30N 35°53' E 014°46'0 0.8
2017-May-14 08:58N 35°53' E 014°46'0 0.0
2017-May-14 08:28N 35°53' E 014°46'0 0.0
2017-May-14 07:58N 35°53' E 014°46'0 0.0
2017-May-14 07:28N 35°53' E 014°46'0 0.0
2017-May-14 06:58N 35°53' E 014°46'0 0.0
2017-May-14 06:28N 35°53' E 014°46'0 0.0
2017-May-14 05:58N 35°53' E 014°46'0 0.0
2017-May-14 05:28N 35°53' E 014°46'0 0.0
2017-May-14 04:58N 35°53' E 014°46'0 0.0
2017-May-14 04:28N 35°53' E 014°46'0 0.0
2017-May-14 03:58N 35°53' E 014°46'0 0.1
2017-May-14 03:28N 35°53' E 014°46'0 0.1
2017-May-14 02:58N 35°53' E 014°46'0 0.2
2017-May-14 02:31N 35°53' E 014°46'1 2.7
2017-May-14 02:00N 35°53' E 014°48'4 8.2
2017-May-14 01:31N 35°53' E 014°53'5 9.9
2017-May-14 00:59N 35°52' E 014°59'612.3
2017-May-14 00:31N 35°52' E 015°06'42712.4
2017-May-12 14:04N 37°11' E 023°49'712.1
2017-May-12 13:30N 37°17' E 023°53'612.6
2017-May-12 13:00N 37°22' E 023°57'812.7
2017-May-12 12:21N 37°29' E 024°04'1712.4
2017-May-12 10:57N 37°44' E 024°14'812.9
2017-May-12 10:20N 37°49' E 024°22'613.2
2017-May-12 09:54N 37°53' E 024°28'  

Dump ship's entire track history